LEBG

Burgos Airport

Burgos, Spain
TAF LEBG 251400Z 2515/2524 05012KT CAVOK
Issued Valid From Valid To
Sep-25 @ 14:00 UTC
(3 hours ago)
Sep-25 @ 15:00 UTC
(2 hours ago)
Sep-26 @ 00:00 UTC
(in 7 hours)
Sep-25 @ 15:00 to Sep-26 @ 00:00
TAF LEBG 251400Z 2515/2524 05012KT CAVOK
Wind Visibility Clouds Conditions
50° at 12 knots 10,000+ meters
  • No significant clouds
TAF LEBG 251400Z 2515/2524 05012KT CAVOK
Issued Sep-25 @ 14:00 UTC
(3 hours ago)
Valid From Sep-25 @ 15:00 UTC
(2 hours ago)
Valid To Sep-26 @ 00:00 UTC
(in 7 hours)
Sep-25 @ 15:00 - Sep-26 @ 00:00
Wind Visibility
50° at 12 knots 10,000+ meters
Clouds
  • No significant clouds
Conditions